Time,TemperatureF,DewpointF,PressureIn,WindDirection,WindDirectionDegrees,WindSpeedMPH,WindSpeedGustMPH,Humidity,HourlyPrecipIn,Conditions,Clouds,dailyrainin,SolarRadiationWatts/m^2,SoftwareType,DateUTC
2013-04-06 00:02:00,71.0,57.0,-100.00,ENE,75,2.0,6.0,62,0.00,,,0.00,0.000000,,2013-04-06 10:02:00,
2013-04-06 00:12:00,71.0,57.0,-100.00,ENE,75,2.0,6.0,62,0.00,,,0.00,0.000000,,2013-04-06 10:12:00,
2013-04-06 00:22:00,71.0,59.0,-100.00,ENE,71,3.0,6.0,65,0.00,,,0.00,0.000000,,2013-04-06 10:22:00,
2013-04-06 00:43:00,71.0,59.0,-100.00,ENE,71,3.0,6.0,65,0.00,,,0.00,0.000000,,2013-04-06 10:43:00,
2013-04-06 00:53:00,71.0,59.0,-100.00,ENE,71,3.0,6.0,65,0.00,,,0.00,0.000000,,2013-04-06 10:53:00,
2013-04-06 01:02:00,71.0,59.0,-100.00,ENE,71,3.0,6.0,65,0.00,,,0.00,0.000000,,2013-04-06 11:02:00,
2013-04-06 01:12:00,71.0,59.0,-100.00,ENE,71,3.0,6.0,65,0.00,,,0.00,0.000000,,2013-04-06 11:12:00,
2013-04-06 01:43:00,70.0,59.0,-100.00,East,91,2.0,5.0,67,0.00,,,0.00,0.000000,,2013-04-06 11:43:00,
2013-04-06 01:52:00,70.0,59.0,-100.00,East,91,2.0,5.0,67,0.00,,,0.00,0.000000,,2013-04-06 11:52:00,
2013-04-06 02:02:00,70.0,59.0,-100.00,East,91,2.0,5.0,67,0.00,,,0.00,0.000000,,2013-04-06 12:02:00,
2013-04-06 02:12:00,70.0,59.0,-100.00,East,91,2.0,5.0,67,0.00,,,0.00,0.000000,,2013-04-06 12:12:00,
2013-04-06 02:21:00,70.0,59.0,-100.00,East,91,2.0,5.0,67,0.00,,,0.00,0.000000,,2013-04-06 12:21:00,
2013-04-06 02:22:00,70.0,57.0,-100.00,East,89,3.0,5.0,64,0.00,,,0.00,0.000000,,2013-04-06 12:22:00,
2013-04-06 02:44:00,70.0,57.0,-100.00,East,89,3.0,5.0,64,0.00,,,0.00,0.000000,,2013-04-06 12:44:00,
2013-04-06 02:52:00,70.0,57.0,-100.00,East,89,3.0,5.0,64,0.00,,,0.00,0.000000,,2013-04-06 12:52:00,
2013-04-06 03:02:00,70.0,57.0,-100.00,East,89,3.0,5.0,64,0.00,,,0.00,0.000000,,2013-04-06 13:02:00,
2013-04-06 03:12:00,70.0,57.0,-100.00,East,89,3.0,5.0,64,0.00,,,0.00,0.000000,,2013-04-06 13:12:00,
2013-04-06 03:43:00,70.0,57.0,-100.00,East,85,3.0,7.0,63,0.00,,,0.00,0.000000,,2013-04-06 13:43:00,
2013-04-06 03:53:00,70.0,57.0,-100.00,East,85,3.0,7.0,63,0.00,,,0.00,0.000000,,2013-04-06 13:53:00,
2013-04-06 04:03:00,70.0,57.0,-100.00,East,85,3.0,7.0,63,0.00,,,0.00,0.000000,,2013-04-06 14:03:00,
2013-04-06 04:12:00,70.0,57.0,-100.00,East,85,3.0,7.0,63,0.00,,,0.00,0.000000,,2013-04-06 14:12:00,
2013-04-06 04:21:00,70.0,57.0,-100.00,East,85,3.0,7.0,63,0.00,,,0.00,0.000000,,2013-04-06 14:21:00,
2013-04-06 04:43:00,69.0,56.0,-100.00,East,88,3.0,6.0,64,0.00,,,0.00,0.000000,,2013-04-06 14:43:00,
2013-04-06 04:53:00,69.0,56.0,-100.00,East,88,3.0,6.0,64,0.00,,,0.00,0.000000,,2013-04-06 14:53:00,
2013-04-06 05:02:00,69.0,56.0,-100.00,East,88,3.0,6.0,64,0.00,,,0.00,0.000000,,2013-04-06 15:02:00,
2013-04-06 05:11:00,69.0,56.0,-100.00,East,88,3.0,6.0,64,0.00,,,0.00,0.000000,,2013-04-06 15:11:00,
2013-04-06 05:21:00,69.0,56.0,-100.00,East,88,3.0,6.0,64,0.00,,,0.00,0.000000,,2013-04-06 15:21:00,
2013-04-06 05:22:00,69.0,56.0,-100.00,East,82,3.0,5.0,63,0.00,,,0.00,0.000000,,2013-04-06 15:22:00,
2013-04-06 05:43:00,69.0,56.0,-100.00,East,82,3.0,5.0,63,0.00,,,0.00,0.000000,,2013-04-06 15:43:00,
2013-04-06 05:53:00,69.0,56.0,-100.00,East,82,3.0,5.0,63,0.00,,,0.00,0.000000,,2013-04-06 15:53:00,
2013-04-06 06:04:00,69.0,56.0,-100.00,East,82,3.0,5.0,63,0.00,,,0.00,0.000000,,2013-04-06 16:04:00,
2013-04-06 06:43:00,69.0,56.0,-100.00,ENE,76,3.0,6.0,63,0.00,,,0.00,0.000000,,2013-04-06 16:43:00,
2013-04-06 06:53:00,69.0,56.0,-100.00,ENE,76,3.0,6.0,63,0.00,,,0.00,0.000000,,2013-04-06 16:53:00,
2013-04-06 07:02:00,69.0,56.0,-100.00,ENE,76,3.0,6.0,63,0.00,,,0.00,0.000000,,2013-04-06 17:02:00,
2013-04-06 07:12:00,69.0,56.0,-100.00,ENE,76,3.0,6.0,63,0.00,,,0.00,0.000000,,2013-04-06 17:12:00,
2013-04-06 07:21:00,69.0,56.0,-100.00,ENE,76,3.0,6.0,63,0.00,,,0.00,0.000000,,2013-04-06 17:21:00,
2013-04-06 07:43:00,69.0,55.0,-100.00,ENE,69,3.0,6.0,60,0.00,,,0.00,24.000000,,2013-04-06 17:43:00,
2013-04-06 07:52:00,69.0,55.0,-100.00,ENE,69,3.0,6.0,60,0.00,,,0.00,24.000000,,2013-04-06 17:52:00,
2013-04-06 08:02:00,69.0,55.0,-100.00,ENE,69,3.0,6.0,60,0.00,,,0.00,24.000000,,2013-04-06 18:02:00,
2013-04-06 08:12:00,69.0,55.0,-100.00,ENE,69,3.0,6.0,60,0.00,,,0.00,24.000000,,2013-04-06 18:12:00,
2013-04-06 08:21:00,69.0,55.0,-100.00,ENE,69,3.0,6.0,60,0.00,,,0.00,24.000000,,2013-04-06 18:21:00,
2013-04-06 08:22:00,74.0,55.0,-100.00,ENE,65,2.0,5.0,52,0.00,,,0.00,200.000000,,2013-04-06 18:22:00,
2013-04-06 08:43:00,74.0,55.0,-100.00,ENE,65,2.0,5.0,52,0.00,,,0.00,200.000000,,2013-04-06 18:43:00,
2013-04-06 08:52:00,74.0,55.0,-100.00,ENE,65,2.0,5.0,52,0.00,,,0.00,200.000000,,2013-04-06 18:52:00,
2013-04-06 09:02:00,74.0,55.0,-100.00,ENE,65,2.0,5.0,52,0.00,,,0.00,200.000000,,2013-04-06 19:02:00,
2013-04-06 09:12:00,74.0,55.0,-100.00,ENE,65,2.0,5.0,52,0.00,,,0.00,200.000000,,2013-04-06 19:12:00,
2013-04-06 09:42:00,77.0,59.0,-100.00,West,264,2.0,6.0,53,0.00,,,0.00,421.000000,,2013-04-06 19:42:00,
2013-04-06 09:53:00,77.0,59.0,-100.00,West,264,2.0,6.0,53,0.00,,,0.00,421.000000,,2013-04-06 19:53:00,
2013-04-06 10:02:00,77.0,59.0,-100.00,West,264,2.0,6.0,53,0.00,,,0.00,421.000000,,2013-04-06 20:02:00,
2013-04-06 10:12:00,77.0,59.0,-100.00,West,264,2.0,6.0,53,0.00,,,0.00,421.000000,,2013-04-06 20:12:00,
2013-04-06 10:21:00,77.0,59.0,-100.00,West,264,2.0,6.0,53,0.00,,,0.00,421.000000,,2013-04-06 20:21:00,
2013-04-06 10:22:00,78.0,63.0,-100.00,West,269,3.0,7.0,60,0.00,,,0.00,639.000000,,2013-04-06 20:22:00,
2013-04-06 10:42:00,78.0,63.0,-100.00,West,269,3.0,7.0,60,0.00,,,0.00,639.000000,,2013-04-06 20:42:00,
2013-04-06 10:52:00,78.0,63.0,-100.00,West,269,3.0,7.0,60,0.00,,,0.00,639.000000,,2013-04-06 20:52:00,
2013-04-06 11:02:00,78.0,63.0,-100.00,West,269,3.0,7.0,60,0.00,,,0.00,639.000000,,2013-04-06 21:02:00,
2013-04-06 11:12:00,78.0,63.0,-100.00,West,269,3.0,7.0,60,0.00,,,0.00,639.000000,,2013-04-06 21:12:00,
2013-04-06 11:22:00,80.0,63.0,-100.00,West,265,5.0,11.0,57,0.00,,,0.00,804.000000,,2013-04-06 21:22:00,
2013-04-06 11:43:00,80.0,63.0,-100.00,West,265,5.0,11.0,57,0.00,,,0.00,804.000000,,2013-04-06 21:43:00,
2013-04-06 11:53:00,80.0,63.0,-100.00,West,265,5.0,11.0,57,0.00,,,0.00,804.000000,,2013-04-06 21:53:00,
2013-04-06 12:02:00,80.0,63.0,-100.00,West,265,5.0,11.0,57,0.00,,,0.00,804.000000,,2013-04-06 22:02:00,
2013-04-06 12:12:00,80.0,63.0,-100.00,West,265,5.0,11.0,57,0.00,,,0.00,804.000000,,2013-04-06 22:12:00,
2013-04-06 12:22:00,81.0,65.0,-100.00,West,267,5.0,11.0,59,0.00,,,0.00,882.000000,,2013-04-06 22:22:00,
2013-04-06 12:44:00,81.0,65.0,-100.00,West,267,5.0,11.0,59,0.00,,,0.00,882.000000,,2013-04-06 22:44:00,
2013-04-06 12:53:00,81.0,65.0,-100.00,West,267,5.0,11.0,59,0.00,,,0.00,882.000000,,2013-04-06 22:53:00,
2013-04-06 13:03:00,81.0,65.0,-100.00,West,267,5.0,11.0,59,0.00,,,0.00,882.000000,,2013-04-06 23:03:00,
2013-04-06 13:13:00,81.0,65.0,-100.00,West,267,5.0,11.0,59,0.00,,,0.00,882.000000,,2013-04-06 23:13:00,
2013-04-06 13:22:00,82.0,66.0,-100.00,West,278,5.0,13.0,58,0.00,,,0.00,925.000000,,2013-04-06 23:22:00,
2013-04-06 13:43:00,82.0,66.0,-100.00,West,278,5.0,13.0,58,0.00,,,0.00,925.000000,,2013-04-06 23:43:00,
2013-04-06 13:53:00,82.0,66.0,-100.00,West,278,5.0,13.0,58,0.00,,,0.00,925.000000,,2013-04-06 23:53:00,
2013-04-06 14:02:00,82.0,66.0,-100.00,West,278,5.0,13.0,58,0.00,,,0.00,925.000000,,2013-04-07 00:02:00,
2013-04-06 14:12:00,82.0,66.0,-100.00,West,278,5.0,13.0,58,0.00,,,0.00,925.000000,,2013-04-07 00:12:00,
2013-04-06 14:22:00,81.0,64.0,-100.00,West,269,6.0,12.0,56,0.00,,,0.00,889.000000,,2013-04-07 00:22:00,
2013-04-06 14:43:00,81.0,64.0,-100.00,West,269,6.0,12.0,56,0.00,,,0.00,889.000000,,2013-04-07 00:43:00,
2013-04-06 14:53:00,81.0,64.0,-100.00,West,269,6.0,12.0,56,0.00,,,0.00,889.000000,,2013-04-07 00:53:00,
2013-04-06 15:02:00,81.0,64.0,-100.00,West,269,6.0,12.0,56,0.00,,,0.00,889.000000,,2013-04-07 01:02:00,
2013-04-06 15:12:00,81.0,64.0,-100.00,West,269,6.0,12.0,56,0.00,,,0.00,889.000000,,2013-04-07 01:12:00,
2013-04-06 15:22:00,82.0,67.0,-100.00,West,270,5.0,12.0,60,0.00,,,0.00,775.000000,,2013-04-07 01:22:00,
2013-04-06 15:43:00,82.0,67.0,-100.00,West,270,5.0,12.0,60,0.00,,,0.00,775.000000,,2013-04-07 01:43:00,
2013-04-06 15:53:00,82.0,67.0,-100.00,West,270,5.0,12.0,60,0.00,,,0.00,775.000000,,2013-04-07 01:53:00,
2013-04-06 16:02:00,82.0,67.0,-100.00,West,270,5.0,12.0,60,0.00,,,0.00,775.000000,,2013-04-07 02:02:00,
2013-04-06 16:12:00,82.0,67.0,-100.00,West,270,5.0,12.0,60,0.00,,,0.00,775.000000,,2013-04-07 02:12:00,
2013-04-06 16:43:00,81.0,65.0,-100.00,West,269,5.0,10.0,58,0.00,,,0.00,608.000000,,2013-04-07 02:43:00,
2013-04-06 16:52:00,81.0,65.0,-100.00,West,269,5.0,10.0,58,0.00,,,0.00,608.000000,,2013-04-07 02:52:00,
2013-04-06 17:02:00,81.0,65.0,-100.00,West,269,5.0,10.0,58,0.00,,,0.00,608.000000,,2013-04-07 03:02:00,
2013-04-06 17:12:00,81.0,65.0,-100.00,West,269,5.0,10.0,58,0.00,,,0.00,608.000000,,2013-04-07 03:12:00,
2013-04-06 17:21:00,81.0,65.0,-100.00,West,269,5.0,10.0,58,0.00,,,0.00,608.000000,,2013-04-07 03:21:00,
2013-04-06 17:22:00,80.0,65.0,-100.00,West,271,4.0,10.0,61,0.00,,,0.00,387.000000,,2013-04-07 03:22:00,
2013-04-06 17:44:00,80.0,65.0,-100.00,West,271,4.0,10.0,61,0.00,,,0.00,387.000000,,2013-04-07 03:44:00,
2013-04-06 17:54:00,80.0,65.0,-100.00,West,271,4.0,10.0,61,0.00,,,0.00,387.000000,,2013-04-07 03:54:00,
2013-04-06 18:03:00,80.0,65.0,-100.00,West,271,4.0,10.0,61,0.00,,,0.00,387.000000,,2013-04-07 04:03:00,
2013-04-06 18:13:00,80.0,65.0,-100.00,West,271,4.0,10.0,61,0.00,,,0.00,387.000000,,2013-04-07 04:13:00,
2013-04-06 18:22:00,79.0,66.0,-100.00,West,269,3.0,6.0,64,0.00,,,0.00,205.000000,,2013-04-07 04:22:00,
2013-04-06 18:43:00,79.0,66.0,-100.00,West,269,3.0,6.0,64,0.00,,,0.00,205.000000,,2013-04-07 04:43:00,
2013-04-06 18:53:00,79.0,66.0,-100.00,West,269,3.0,6.0,64,0.00,,,0.00,205.000000,,2013-04-07 04:53:00,
2013-04-06 19:02:00,79.0,66.0,-100.00,West,269,3.0,6.0,64,0.00,,,0.00,205.000000,,2013-04-07 05:02:00,
2013-04-06 19:12:00,79.0,66.0,-100.00,West,269,3.0,6.0,64,0.00,,,0.00,205.000000,,2013-04-07 05:12:00,
2013-04-06 19:43:00,77.0,66.0,-100.00,WSW,252,2.0,5.0,70,0.00,,,0.00,27.000000,,2013-04-07 05:43:00,
2013-04-06 19:52:00,77.0,66.0,-100.00,WSW,252,2.0,5.0,70,0.00,,,0.00,27.000000,,2013-04-07 05:52:00,
2013-04-06 20:02:00,77.0,66.0,-100.00,WSW,252,2.0,5.0,70,0.00,,,0.00,27.000000,,2013-04-07 06:02:00,
2013-04-06 20:12:00,77.0,66.0,-100.00,WSW,252,2.0,5.0,70,0.00,,,0.00,27.000000,,2013-04-07 06:12:00,
2013-04-06 20:21:00,77.0,66.0,-100.00,WSW,252,2.0,5.0,70,0.00,,,0.00,27.000000,,2013-04-07 06:21:00,
2013-04-06 20:43:00,76.0,66.0,-100.00,SW,222,2.0,4.0,71,0.00,,,-99.99,0.000000,,2013-04-07 06:43:00,
2013-04-06 20:52:00,76.0,66.0,-100.00,SW,222,2.0,4.0,71,0.00,,,-99.99,0.000000,,2013-04-07 06:52:00,
2013-04-06 21:02:00,76.0,66.0,-100.00,SW,222,2.0,4.0,71,0.00,,,-99.99,0.000000,,2013-04-07 07:02:00,
2013-04-06 21:12:00,76.0,66.0,-100.00,SW,222,2.0,4.0,71,0.00,,,-99.99,0.000000,,2013-04-07 07:12:00,
2013-04-06 21:21:00,76.0,66.0,-100.00,SW,222,2.0,4.0,71,0.00,,,-99.99,0.000000,,2013-04-07 07:21:00,
2013-04-06 21:42:00,75.0,65.0,-100.00,SSW,208,1.0,3.0,72,0.00,,,0.00,0.000000,,2013-04-07 07:42:00,
2013-04-06 21:52:00,75.0,65.0,-100.00,SSW,208,1.0,3.0,72,0.00,,,0.00,0.000000,,2013-04-07 07:52:00,
2013-04-06 22:02:00,75.0,65.0,-100.00,SSW,208,1.0,3.0,72,0.00,,,0.00,0.000000,,2013-04-07 08:02:00,
2013-04-06 22:12:00,75.0,65.0,-100.00,SSW,208,1.0,3.0,72,0.00,,,0.00,0.000000,,2013-04-07 08:12:00,
2013-04-06 22:21:00,75.0,65.0,-100.00,SSW,208,1.0,3.0,72,0.00,,,0.00,0.000000,,2013-04-07 08:21:00,
2013-04-06 22:43:00,75.0,65.0,-100.00,South,172,1.0,3.0,71,0.00,,,0.00,0.000000,,2013-04-07 08:43:00,
2013-04-06 22:53:00,75.0,65.0,-100.00,South,172,1.0,3.0,71,0.00,,,0.00,0.000000,,2013-04-07 08:53:00,
2013-04-06 23:02:00,75.0,65.0,-100.00,South,172,1.0,3.0,71,0.00,,,0.00,0.000000,,2013-04-07 09:02:00,
2013-04-06 23:12:00,75.0,65.0,-100.00,South,172,1.0,3.0,71,0.00,,,0.00,0.000000,,2013-04-07 09:12:00,
2013-04-06 23:21:00,75.0,65.0,-100.00,South,172,1.0,3.0,71,0.00,,,0.00,0.000000,,2013-04-07 09:21:00,
2013-04-06 23:22:00,74.0,64.0,-100.00,ENE,62,2.0,5.0,71,0.00,,,0.00,0.000000,,2013-04-07 09:22:00,
2013-04-06 23:44:00,74.0,64.0,-100.00,ENE,62,2.0,5.0,71,0.00,,,0.00,0.000000,,2013-04-07 09:44:00,
2013-04-06 23:53:00,74.0,64.0,-100.00,ENE,62,2.0,5.0,71,0.00,,,0.00,0.000000,,2013-04-07 09:53:00,